Terminal Aerodrome Forecast
Issued by NWS

Home | Current Version | Previous Version | Text Only | Print | Product List | Glossary On
Versions: 1 2 3 4 5 6 7 8 9 10 11
563
FTUS42 TJSJ 081135
TAFJBQ
TAF
TJBQ 081135Z 0812/0912 VRB05KT P6SM SKC
     FM081530 02010KT P6SM FEW030 SCT050
     FM082300 VRB03KT P6SM FEW025=

USA.gov is the U.S. government's official web portal to all federal, state and local government web resources and services.